Abernathy, Texas
Current Conditions -  °F | °C
As of 5:53 AM on Sunday 23 Nov 2014 (Local Time) from KLBB Reporting Station
Few Clouds Few Clouds  
Wind Chill: 52°   Ceiling: Unl
Heat Index: 52°   Visibility: 10mi
Dew Point: 24°   Wind: 16mph
Humidity: 34%   Direction: 270°W
Pressure: 29.56"   Gusts: NA
Location:  33.83°N, 101.84°W
Report Text: KLBB 231153Z 27014KT 10SM FEW300 11/M04 A2956 RMK AO2 SLP980 T01111044 10117 20056 56006
Loading
Personal Weather Stations






























Interactive Weather Map New forecast layout! Learn more

10-Day Weather Forecast

Advertisements
Track Severe Weather on mobile